createdAt,value
2023-07-17T00:01:37.816Z,19.40
2023-07-17T00:04:10.360Z,19.35
2023-07-17T00:06:43.488Z,19.30
2023-07-17T00:09:18.277Z,19.29
2023-07-17T00:11:51.080Z,19.30
2023-07-17T00:14:25.890Z,19.29
2023-07-17T00:16:59.829Z,19.28
2023-07-17T00:19:32.448Z,19.25
2023-07-17T00:22:04.979Z,19.22
2023-07-17T00:24:39.093Z,19.20
2023-07-17T00:27:12.709Z,19.13
2023-07-17T00:29:45.977Z,19.05
2023-07-17T00:32:19.355Z,18.98
2023-07-17T00:34:52.558Z,18.95
2023-07-17T00:37:26.315Z,18.95
2023-07-17T00:39:59.619Z,18.94
2023-07-17T00:42:34.028Z,18.93
2023-07-17T00:45:08.412Z,18.93
2023-07-17T00:47:43.674Z,18.94
2023-07-17T00:50:18.416Z,18.92
2023-07-17T00:52:51.141Z,18.85
2023-07-17T00:55:25.602Z,18.80
2023-07-17T00:57:59.619Z,18.79
2023-07-17T01:00:34.820Z,18.79
2023-07-17T01:03:12.026Z,18.79
2023-07-17T01:05:46.963Z,18.79
2023-07-17T01:08:21.638Z,18.82
2023-07-17T01:10:54.280Z,18.83
2023-07-17T01:13:29.147Z,18.86
2023-07-17T01:16:02.608Z,18.88
2023-07-17T01:18:36.303Z,18.90
2023-07-17T01:21:10.994Z,18.89
2023-07-17T01:23:47.242Z,18.90
2023-07-17T01:26:21.565Z,18.91
2023-07-17T01:28:54.882Z,18.88
2023-07-17T01:31:27.202Z,18.84
2023-07-17T01:34:00.744Z,18.82
2023-07-17T01:36:35.460Z,18.81
2023-07-17T01:39:09.790Z,18.82
2023-07-17T01:41:42.640Z,18.85
2023-07-17T01:44:16.874Z,18.87
2023-07-17T01:46:50.006Z,18.84
2023-07-17T01:49:23.674Z,18.82
2023-07-17T01:51:57.665Z,18.81
2023-07-17T01:54:30.661Z,18.82
2023-07-17T01:57:04.483Z,18.79
2023-07-17T01:59:37.883Z,18.78
2023-07-17T02:02:12.991Z,18.81
2023-07-17T02:04:46.975Z,18.83
2023-07-17T02:07:20.678Z,18.84
2023-07-17T02:09:53.937Z,18.82
2023-07-17T02:12:26.628Z,18.78
2023-07-17T02:14:58.805Z,18.77
2023-07-17T02:17:32.264Z,18.77
2023-07-17T02:20:11.387Z,18.78
2023-07-17T02:22:43.873Z,18.81
2023-07-17T02:25:18.646Z,18.84
2023-07-17T02:27:51.294Z,18.88
2023-07-17T02:30:25.116Z,18.91
2023-07-17T02:33:00.802Z,18.96
2023-07-17T02:35:33.562Z,19.00
2023-07-17T02:38:08.084Z,19.02
2023-07-17T02:40:44.416Z,19.04
2023-07-17T02:43:17.924Z,19.03
2023-07-17T02:45:51.643Z,19.02
2023-07-17T02:48:24.589Z,19.00
2023-07-17T02:50:57.845Z,18.99
2023-07-17T02:53:33.260Z,19.00
2023-07-17T02:56:06.041Z,19.01
2023-07-17T02:58:42.296Z,18.99
2023-07-17T03:01:16.946Z,18.97
2023-07-17T03:03:50.745Z,18.99
2023-07-17T03:06:23.631Z,19.02
2023-07-17T03:08:55.916Z,19.02
2023-07-17T03:11:29.050Z,19.01
2023-07-17T03:14:03.873Z,19.00
2023-07-17T03:16:38.111Z,19.02
2023-07-17T03:19:12.901Z,19.04
2023-07-17T03:21:46.998Z,19.07
2023-07-17T03:24:20.928Z,19.11
2023-07-17T03:26:53.467Z,19.14
2023-07-17T03:29:26.489Z,19.18
2023-07-17T03:32:00.433Z,19.24
2023-07-17T03:34:34.641Z,19.28
2023-07-17T03:37:10.307Z,19.34
2023-07-17T03:39:43.944Z,19.48
2023-07-17T03:42:19.708Z,19.59
2023-07-17T03:44:53.317Z,19.68
2023-07-17T03:47:28.313Z,19.74
2023-07-17T03:50:02.390Z,19.79
2023-07-17T03:52:39.500Z,19.83
2023-07-17T03:55:16.556Z,19.86
2023-07-17T03:57:52.323Z,19.89
2023-07-17T04:00:27.950Z,19.92
2023-07-17T04:03:01.495Z,19.95
2023-07-17T04:05:39.658Z,19.97
2023-07-17T04:08:13.364Z,20.01
2023-07-17T04:10:46.153Z,20.02
2023-07-17T04:13:19.314Z,20.03
2023-07-17T04:15:52.770Z,20.04
2023-07-17T04:18:25.943Z,20.06
2023-07-17T04:20:59.662Z,20.07
2023-07-17T04:23:33.780Z,20.09
2023-07-17T04:26:08.940Z,20.10
2023-07-17T04:28:42.853Z,20.11
2023-07-17T04:31:16.978Z,20.12
2023-07-17T04:33:51.517Z,20.14
2023-07-17T04:36:25.138Z,20.17
2023-07-17T04:38:59.838Z,20.21
2023-07-17T04:41:33.826Z,20.24
2023-07-17T04:44:08.455Z,20.25
2023-07-17T04:46:42.139Z,20.25
2023-07-17T04:49:15.033Z,20.28
2023-07-17T04:51:51.439Z,20.31
2023-07-17T04:54:25.092Z,20.33
2023-07-17T04:56:59.697Z,20.33
2023-07-17T04:59:33.029Z,20.34
2023-07-17T05:02:08.626Z,20.34
2023-07-17T05:04:41.844Z,20.37
2023-07-17T05:07:15.652Z,20.42
2023-07-17T05:09:50.041Z,20.49
2023-07-17T05:12:25.111Z,20.55
2023-07-17T05:15:00.787Z,20.61
2023-07-17T05:17:39.725Z,20.68
2023-07-17T05:20:14.618Z,20.71
2023-07-17T05:22:48.961Z,20.71
2023-07-17T05:25:22.691Z,20.71
2023-07-17T05:27:56.008Z,20.70
2023-07-17T05:30:28.485Z,20.69
2023-07-17T05:33:02.016Z,20.67
2023-07-17T05:35:37.002Z,20.65
2023-07-17T06:02:03.817Z,19.52
2023-07-17T06:04:33.330Z,19.43
2023-07-17T06:07:04.825Z,19.39
2023-07-17T06:09:35.565Z,19.38
2023-07-17T06:12:06.524Z,19.38
2023-07-17T06:14:36.534Z,19.29
2023-07-17T06:17:07.736Z,19.12
2023-07-17T06:19:37.009Z,18.97
2023-07-17T06:22:07.938Z,18.87
2023-07-17T06:24:36.910Z,18.80
2023-07-17T06:27:08.680Z,18.77
2023-07-17T06:29:37.491Z,18.74
2023-07-17T06:32:09.308Z,18.71
2023-07-17T06:34:42.155Z,18.71
2023-07-17T06:37:10.917Z,18.72
2023-07-17T06:39:42.088Z,18.75
2023-07-17T06:42:11.360Z,18.79
2023-07-17T06:44:40.399Z,18.83
2023-07-17T06:47:20.555Z,18.90
2023-07-17T06:49:55.776Z,18.98
2023-07-17T06:52:25.797Z,19.04
2023-07-17T06:55:03.807Z,19.10
2023-07-17T06:57:34.750Z,19.16
2023-07-17T07:00:08.469Z,19.20
2023-07-17T07:02:39.805Z,19.24
2023-07-17T07:05:12.213Z,19.32
2023-07-17T07:07:43.095Z,19.44
2023-07-17T07:10:13.987Z,19.57
2023-07-17T07:12:44.521Z,19.68
2023-07-17T07:15:13.754Z,19.76
2023-07-17T07:17:46.160Z,19.85
2023-07-17T07:20:16.000Z,19.90
2023-07-17T07:22:46.106Z,19.91
2023-07-17T07:25:15.576Z,19.96
2023-07-17T07:27:45.851Z,20.03
2023-07-17T07:30:16.456Z,20.10
2023-07-17T07:32:46.209Z,20.17
2023-07-17T07:35:16.559Z,20.23
2023-07-17T07:37:48.714Z,20.29
2023-07-17T07:40:17.657Z,20.33
2023-07-17T07:42:48.653Z,20.37
2023-07-17T07:45:18.705Z,20.43
2023-07-17T07:47:49.073Z,20.48
2023-07-17T07:50:18.765Z,20.54
2023-07-17T07:52:54.695Z,20.63
2023-07-17T07:55:27.626Z,20.70
2023-07-17T07:57:57.309Z,20.74
2023-07-17T08:00:26.831Z,20.77
2023-07-17T08:02:56.303Z,20.83
2023-07-17T08:05:26.616Z,20.87
2023-07-17T08:07:56.453Z,20.86
2023-07-17T08:10:27.408Z,20.90
2023-07-17T08:12:59.486Z,20.96
2023-07-17T08:15:30.370Z,21.03
2023-07-17T08:18:00.492Z,21.10
2023-07-17T08:20:31.316Z,21.15
2023-07-17T08:23:00.270Z,21.19
2023-07-17T08:25:32.446Z,21.20
2023-07-17T08:28:02.018Z,21.24
2023-07-17T08:30:30.930Z,21.32
2023-07-17T08:33:00.695Z,21.42
2023-07-17T08:35:30.676Z,21.47
2023-07-17T08:37:59.688Z,21.52
2023-07-17T08:40:29.642Z,21.60
2023-07-17T08:43:01.254Z,21.72
2023-07-17T08:45:32.666Z,21.85
2023-07-17T08:48:03.407Z,21.95
2023-07-17T08:50:33.234Z,22.05
2023-07-17T08:53:04.096Z,22.10
2023-07-17T08:55:35.005Z,22.15
2023-07-17T08:58:04.353Z,22.22
2023-07-17T09:00:35.109Z,22.28
2023-07-17T09:03:04.850Z,22.33
2023-07-17T09:05:35.090Z,22.37
2023-07-17T09:08:05.086Z,22.43
2023-07-17T09:10:37.306Z,22.50
2023-07-17T09:13:06.393Z,22.50
2023-07-17T09:15:36.197Z,22.54
2023-07-17T09:18:07.257Z,22.59
2023-07-17T09:20:37.811Z,22.63
2023-07-17T09:23:07.823Z,22.68
2023-07-17T09:25:37.884Z,22.66
2023-07-17T09:28:07.540Z,22.68
2023-07-17T09:30:37.985Z,22.71
2023-07-17T09:33:07.785Z,22.70
2023-07-17T09:35:38.209Z,22.75
2023-07-17T09:38:11.754Z,22.86
2023-07-17T09:40:41.461Z,22.93
2023-07-17T09:43:10.913Z,23.04
2023-07-17T09:45:41.662Z,23.17
2023-07-17T09:48:14.696Z,23.30
2023-07-17T09:50:47.523Z,23.43
2023-07-17T09:53:17.865Z,23.61
2023-07-17T09:55:51.008Z,23.75
2023-07-17T09:58:22.682Z,23.89
2023-07-17T10:00:55.118Z,24.01
2023-07-17T10:03:26.379Z,24.10
2023-07-17T10:05:58.999Z,24.16
2023-07-17T10:08:29.384Z,24.21
2023-07-17T10:10:58.850Z,24.28
2023-07-17T10:13:29.184Z,24.35
2023-07-17T10:15:58.715Z,24.48
2023-07-17T10:18:31.628Z,24.60
2023-07-17T10:21:02.561Z,24.69
2023-07-17T10:23:32.203Z,24.79
2023-07-17T10:26:20.375Z,24.86
2023-07-17T10:28:53.427Z,24.92
2023-07-17T10:31:24.573Z,25.05
2023-07-17T10:33:58.830Z,25.17
2023-07-17T10:36:43.645Z,25.23
2023-07-17T10:39:18.441Z,25.27
2023-07-17T10:41:50.880Z,25.22
2023-07-17T10:44:23.188Z,25.10
2023-07-17T10:46:52.592Z,24.98
2023-07-17T10:49:21.856Z,24.87
2023-07-17T10:51:52.060Z,24.77
2023-07-17T10:54:22.725Z,24.65
2023-07-17T10:56:52.665Z,24.54
2023-07-17T10:59:22.189Z,24.47
2023-07-17T11:01:51.078Z,24.43
2023-07-17T11:04:19.969Z,24.40
2023-07-17T11:06:49.798Z,24.33
2023-07-17T11:09:19.814Z,24.21
2023-07-17T11:11:51.713Z,24.05
2023-07-17T11:14:23.257Z,23.92
2023-07-17T11:16:56.572Z,23.84
2023-07-17T11:19:25.663Z,23.79
2023-07-17T11:21:57.286Z,23.77
2023-07-17T11:24:26.297Z,23.75
2023-07-17T11:26:55.441Z,23.73
2023-07-17T11:29:24.895Z,23.69
2023-07-17T11:32:00.215Z,23.68
2023-07-17T11:34:29.528Z,23.65
2023-07-17T11:36:58.415Z,23.60
2023-07-17T11:39:34.755Z,23.52
2023-07-17T11:42:14.974Z,23.40
2023-07-17T11:44:44.984Z,23.30
2023-07-17T11:47:18.158Z,23.25
2023-07-17T11:49:53.708Z,23.12
2023-07-17T11:52:24.952Z,22.95
2023-07-17T11:55:00.102Z,22.82
2023-07-17T11:57:29.423Z,22.74
2023-07-17T12:00:07.962Z,22.65
2023-07-17T12:02:47.071Z,22.61
2023-07-17T12:05:18.961Z,22.61
2023-07-17T12:07:49.236Z,22.61
2023-07-17T12:10:19.655Z,22.60
2023-07-17T12:12:48.819Z,22.54
2023-07-17T12:15:19.151Z,22.42
2023-07-17T12:17:48.657Z,22.38
2023-07-17T12:20:21.106Z,22.35
2023-07-17T12:22:53.035Z,22.32
2023-07-17T12:25:23.666Z,22.26
2023-07-17T12:27:54.329Z,22.19
2023-07-17T12:30:24.260Z,22.19
2023-07-17T12:32:53.975Z,22.20
2023-07-17T12:35:24.793Z,22.19
2023-07-17T12:37:54.677Z,22.20
2023-07-17T12:40:30.282Z,22.18
2023-07-17T12:42:58.917Z,22.11
2023-07-17T12:45:28.693Z,22.03
2023-07-17T12:47:59.156Z,21.99
2023-07-17T12:50:28.683Z,21.93
2023-07-17T12:53:02.696Z,21.87
2023-07-17T12:55:31.841Z,21.83
2023-07-17T12:58:01.683Z,21.80
2023-07-17T13:00:31.862Z,21.79
2023-07-17T13:03:02.300Z,21.79
2023-07-17T13:05:31.825Z,21.77
2023-07-17T13:08:01.235Z,21.76
2023-07-17T13:10:31.763Z,21.74
2023-07-17T13:13:02.658Z,21.73
2023-07-17T13:15:32.312Z,21.70
2023-07-17T13:18:01.754Z,21.67
2023-07-17T13:20:32.092Z,21.65
2023-07-17T13:23:01.678Z,21.63
2023-07-17T13:25:31.298Z,21.63
2023-07-17T13:28:01.317Z,21.65
2023-07-17T13:30:31.739Z,21.57
2023-07-17T13:33:01.137Z,21.49
2023-07-17T13:35:29.975Z,21.45
2023-07-17T13:37:58.919Z,21.44
2023-07-17T13:40:30.178Z,21.44
2023-07-17T13:42:58.898Z,21.45
2023-07-17T13:45:28.536Z,21.48
2023-07-17T13:47:58.586Z,21.50
2023-07-17T13:50:27.740Z,21.58
2023-07-17T13:52:57.446Z,21.66
2023-07-17T13:55:27.425Z,21.75
2023-07-17T13:57:57.728Z,21.84
2023-07-17T14:00:29.323Z,21.91
2023-07-17T14:03:01.789Z,21.89
2023-07-17T14:05:31.375Z,21.90
2023-07-17T14:08:05.422Z,21.95
2023-07-17T14:10:37.646Z,22.02
2023-07-17T14:13:07.941Z,22.06
2023-07-17T14:15:37.737Z,22.11
2023-07-17T14:18:06.815Z,22.16
2023-07-17T14:20:41.473Z,22.22
2023-07-17T14:23:11.415Z,22.29
2023-07-17T14:25:40.694Z,22.38
2023-07-17T14:28:12.942Z,22.46
2023-07-17T14:30:46.314Z,22.51
2023-07-17T14:33:15.443Z,22.55
2023-07-17T14:35:46.364Z,22.56
2023-07-17T14:38:14.492Z,22.60
2023-07-17T14:40:43.966Z,22.65
2023-07-17T14:43:16.561Z,22.72
2023-07-17T14:45:46.819Z,22.77
2023-07-17T14:48:16.510Z,22.80
2023-07-17T14:50:46.720Z,22.78
2023-07-17T14:53:16.742Z,22.68
2023-07-17T14:55:45.742Z,22.58
2023-07-17T14:58:15.311Z,22.58
2023-07-17T15:00:46.196Z,22.55
2023-07-17T15:03:14.998Z,22.52
2023-07-17T15:05:49.716Z,22.48
2023-07-17T15:08:22.578Z,22.48
2023-07-17T15:10:58.209Z,22.45
2023-07-17T15:13:28.890Z,22.44
2023-07-17T15:16:01.855Z,22.42
2023-07-17T15:18:34.103Z,22.37
2023-07-17T15:21:07.036Z,22.34
2023-07-17T15:23:35.961Z,22.30
2023-07-17T15:26:08.406Z,22.24
2023-07-17T15:28:38.299Z,22.17
2023-07-17T15:31:09.839Z,22.07
2023-07-17T15:33:38.677Z,21.98
2023-07-17T15:36:08.167Z,21.88
2023-07-17T15:38:42.939Z,21.82
2023-07-17T15:41:15.640Z,21.78
2023-07-17T15:43:46.040Z,21.76
2023-07-17T15:46:15.449Z,21.71
2023-07-17T15:48:48.467Z,21.69
2023-07-17T15:51:19.782Z,21.71
2023-07-17T15:53:49.042Z,21.67
2023-07-17T15:56:19.104Z,21.72
2023-07-17T15:58:48.724Z,21.77
2023-07-17T16:01:17.858Z,21.85
2023-07-17T16:03:47.329Z,21.94
2023-07-17T16:06:17.283Z,22.02
2023-07-17T16:08:47.230Z,22.08
2023-07-17T16:11:17.560Z,22.14
2023-07-17T16:13:48.039Z,22.18
2023-07-17T16:16:17.729Z,22.20
2023-07-17T16:18:52.169Z,22.23
2023-07-17T16:21:21.644Z,22.21
2023-07-17T16:23:53.166Z,22.21
2023-07-17T16:26:23.339Z,22.18
2023-07-17T16:28:53.173Z,22.14
2023-07-17T16:31:22.677Z,22.13
2023-07-17T16:33:52.849Z,22.22
2023-07-17T16:36:25.032Z,22.33
2023-07-17T16:38:53.959Z,22.37
2023-07-17T16:41:24.308Z,22.38
2023-07-17T16:43:55.117Z,22.39
2023-07-17T16:46:24.583Z,22.38
2023-07-17T16:48:53.887Z,22.36
2023-07-17T16:51:22.773Z,22.30
2023-07-17T16:53:53.959Z,22.26
2023-07-17T16:56:23.736Z,22.23
2023-07-17T16:58:52.625Z,22.23
2023-07-17T17:01:21.251Z,22.20
2023-07-17T17:03:50.641Z,22.15
2023-07-17T17:06:20.611Z,22.13
2023-07-17T17:09:09.460Z,22.09
2023-07-17T17:11:39.550Z,22.05
2023-07-17T17:14:09.069Z,22.01
2023-07-17T17:16:38.826Z,21.94
2023-07-17T17:19:08.898Z,21.84
2023-07-17T17:21:37.937Z,21.73
2023-07-17T17:24:07.414Z,21.65
2023-07-17T17:26:38.100Z,21.55
2023-07-17T17:29:07.217Z,21.44
2023-07-17T17:31:37.839Z,21.39
2023-07-17T17:34:06.985Z,21.36
2023-07-17T17:36:37.120Z,21.34
2023-07-17T17:39:07.370Z,21.31
2023-07-17T17:41:36.382Z,21.28
2023-07-17T17:44:05.587Z,21.26
2023-07-17T17:46:38.235Z,21.23
2023-07-17T17:49:07.007Z,21.19
2023-07-17T17:51:36.495Z,21.15
2023-07-17T17:54:07.417Z,21.13
2023-07-17T17:56:36.454Z,21.09
2023-07-17T17:59:06.834Z,21.04
2023-07-17T18:01:37.375Z,21.04
2023-07-17T18:04:06.712Z,21.08
2023-07-17T18:06:36.587Z,21.13
2023-07-17T18:09:07.673Z,21.20
2023-07-17T18:11:39.271Z,21.24
2023-07-17T18:14:11.545Z,21.23
2023-07-17T18:16:40.766Z,21.24
2023-07-17T18:19:12.396Z,21.27
2023-07-17T18:21:41.847Z,21.32
2023-07-17T18:24:11.694Z,21.33
2023-07-17T18:26:42.996Z,21.32
2023-07-17T18:29:14.041Z,21.27
2023-07-17T18:31:45.085Z,21.21
2023-07-17T18:34:15.228Z,21.15
2023-07-17T18:36:45.430Z,21.08
2023-07-17T18:39:14.709Z,21.02
2023-07-17T18:41:44.139Z,20.97
2023-07-17T18:44:14.852Z,20.92
2023-07-17T18:46:45.096Z,20.87
2023-07-17T18:49:15.720Z,20.79
2023-07-17T18:51:46.591Z,20.73
2023-07-17T18:54:19.043Z,20.65
2023-07-17T18:56:49.120Z,20.55
2023-07-17T18:59:19.872Z,20.47
2023-07-17T19:01:55.837Z,20.41
2023-07-17T19:04:28.885Z,20.36
2023-07-17T19:06:59.148Z,20.30
2023-07-17T19:09:27.815Z,20.24
2023-07-17T19:11:59.629Z,20.18
2023-07-17T19:14:30.391Z,20.13
2023-07-17T19:17:00.692Z,20.07
2023-07-17T19:19:33.007Z,20.02
2023-07-17T19:22:04.295Z,19.97
2023-07-17T19:24:33.997Z,19.89
2023-07-17T19:27:02.758Z,19.84
2023-07-17T19:29:32.838Z,19.76
2023-07-17T19:32:02.140Z,19.70
2023-07-17T19:34:32.052Z,19.65
2023-07-17T19:37:02.857Z,19.59
2023-07-17T19:39:32.979Z,19.55
2023-07-17T19:42:02.165Z,19.50
2023-07-17T19:44:33.667Z,19.44
2023-07-17T19:47:03.313Z,19.34
2023-07-17T19:49:36.180Z,19.27
2023-07-17T19:52:06.294Z,19.17
2023-07-17T19:54:35.506Z,19.10
2023-07-17T19:57:05.543Z,19.04
2023-07-17T19:59:35.759Z,19.00
2023-07-17T20:02:05.329Z,18.93
2023-07-17T20:04:34.413Z,18.88
2023-07-17T20:07:03.555Z,18.84
2023-07-17T20:09:34.579Z,18.82
2023-07-17T20:12:03.492Z,18.79
2023-07-17T20:14:32.200Z,18.75
2023-07-17T20:17:01.826Z,18.73
2023-07-17T20:19:30.905Z,18.69
2023-07-17T20:22:00.231Z,18.63
2023-07-17T20:24:30.258Z,18.60
2023-07-17T20:26:59.516Z,18.56
2023-07-17T20:29:30.122Z,18.51
2023-07-17T20:31:59.476Z,18.47
2023-07-17T20:34:28.649Z,18.43
2023-07-17T20:37:12.818Z,18.39
2023-07-17T20:39:42.233Z,18.35
2023-07-17T20:49:01.620Z,18.30
2023-07-17T20:51:32.436Z,18.28
2023-07-17T20:54:03.222Z,18.24
2023-07-17T20:56:33.917Z,18.23
2023-07-17T20:59:05.850Z,18.22
2023-07-17T21:01:34.878Z,18.18
2023-07-17T21:04:05.288Z,18.15
2023-07-17T21:06:34.501Z,18.06
2023-07-17T21:09:04.688Z,18.01
2023-07-17T21:11:35.035Z,17.97
2023-07-17T21:14:06.574Z,17.93
2023-07-17T21:16:41.568Z,17.88
2023-07-17T21:19:11.285Z,17.83
2023-07-17T21:21:40.820Z,17.79
2023-07-17T21:24:10.690Z,17.75
2023-07-17T21:26:39.642Z,17.72
2023-07-17T21:29:13.627Z,17.69
2023-07-17T21:31:44.719Z,17.64
2023-07-17T21:34:16.144Z,17.61
2023-07-17T21:36:46.737Z,17.57
2023-07-17T21:39:16.801Z,17.57
2023-07-17T21:41:50.501Z,17.55
2023-07-17T21:44:23.361Z,17.50
2023-07-17T21:46:54.114Z,17.46
2023-07-17T21:49:24.733Z,17.42
2023-07-17T21:51:55.302Z,17.36
2023-07-17T21:54:26.992Z,17.33
2023-07-17T21:56:56.374Z,17.32
2023-07-17T21:59:30.229Z,17.29
2023-07-17T22:02:01.915Z,17.25
2023-07-17T22:04:33.015Z,17.22
2023-07-17T22:07:02.947Z,17.16
2023-07-17T22:09:33.038Z,17.12
2023-07-17T22:12:03.229Z,17.06
2023-07-17T22:14:34.808Z,17.01
2023-07-17T22:17:07.719Z,16.98
2023-07-17T22:19:40.123Z,16.96
2023-07-17T22:22:09.080Z,16.93
2023-07-17T22:24:38.989Z,16.91
2023-07-17T22:27:11.737Z,16.88
2023-07-17T22:29:40.953Z,16.86
2023-07-17T22:32:12.218Z,16.82
2023-07-17T22:34:41.112Z,16.75
2023-07-17T22:37:13.042Z,16.62
2023-07-17T22:39:41.974Z,16.56
2023-07-17T22:42:11.174Z,16.51
2023-07-17T22:44:41.593Z,16.50
2023-07-17T22:47:11.637Z,16.49
2023-07-17T22:49:40.591Z,16.48
2023-07-17T22:52:12.935Z,16.47
2023-07-17T22:54:43.493Z,16.47
2023-07-17T22:57:13.359Z,16.42
2023-07-17T22:59:44.212Z,16.38
2023-07-17T23:02:14.649Z,16.34
2023-07-17T23:04:46.064Z,16.32
2023-07-17T23:07:17.589Z,16.28
2023-07-17T23:09:47.613Z,16.26
2023-07-17T23:12:17.128Z,16.24
2023-07-17T23:14:49.713Z,16.21
2023-07-17T23:17:19.314Z,16.17
2023-07-17T23:19:49.206Z,16.14
2023-07-17T23:22:20.439Z,16.09
2023-07-17T23:24:51.207Z,16.06
2023-07-17T23:27:22.245Z,16.04
2023-07-17T23:29:52.940Z,16.02
2023-07-17T23:32:24.749Z,16.01
2023-07-17T23:34:55.742Z,16.00
2023-07-17T23:37:28.888Z,16.03
2023-07-17T23:40:02.657Z,16.04
2023-07-17T23:42:33.804Z,16.03
2023-07-17T23:45:06.690Z,16.02
2023-07-17T23:47:37.371Z,15.99
2023-07-17T23:50:10.178Z,15.93
2023-07-17T23:52:41.422Z,15.86
2023-07-17T23:55:13.493Z,15.77
2023-07-17T23:57:43.868Z,15.71
